Time;durP1;ratioP1;P1;durP2;ratioP2;P2;SDS_P1;SDS_P2;PMS_P1;PMS_P2;Temp;Humidity;BMP_temperature;BMP_pressure;BME280_temperature;BME280_humidity;BME280_pressure;Samples;Min_cycle;Max_cycle;Signal;HPM_P1;HPM_P2
2021/04/19 02:50:24;;;;;;;;;;;3.00;99.90;;;;;;6260366;22;19931;-96
2021/04/19 03:49:09;;;;;;;;;;;2.60;99.90;;;;;;6356039;22;19926;-95
2021/04/19 03:51:53;;;;;;;;;;;2.90;99.90;;;;;;6335643;22;19944;-96
2021/04/19 03:54:29;;;;;;;;;;;2.60;99.90;;;;;;6351647;22;19918;-96
2021/04/19 03:56:56;;;;;;;;;;;2.60;99.90;;;;;;6344824;22;19919;-96
2021/04/19 03:59:28;;;;;;;;;;;2.60;99.90;;;;;;6342773;22;19923;-96
2021/04/19 04:01:58;;;;;;;;;;;2.50;99.90;;;;;;6345390;22;19918;-96
2021/04/19 04:04:25;;;;;;;;;;;2.50;99.90;;;;;;6343407;22;19918;-95
2021/04/19 04:06:52;;;;;;;;;;;2.50;99.90;;;;;;6341722;22;19918;-96
2021/04/19 04:09:19;;;;;;;;;;;2.40;99.90;;;;;;6343472;22;19934;-96
2021/04/19 04:11:45;;;;;;;;;;;2.40;99.90;;;;;;6342617;22;19971;-96
2021/04/19 04:14:12;;;;;;;;;;;2.30;99.90;;;;;;6346176;22;19983;-96
2021/04/19 04:16:44;;;;;;;;;;;2.30;99.90;;;;;;6318471;22;20015;-96
2021/04/19 04:19:11;;;;;;;;;;;2.30;99.90;;;;;;6321129;22;19923;-96
2021/04/19 04:21:38;;;;;;;;;;;2.30;99.90;;;;;;6354660;22;19922;-96
2021/04/19 04:24:20;;;;;;;;;;;2.30;99.90;;;;;;6333512;22;19918;-96
2021/04/19 04:27:24;;;;;;;;;;;2.20;99.90;;;;;;6363531;22;19932;-96
2021/04/19 04:30:10;;;;;;;;;;;2.20;99.90;;;;;;6358890;22;19930;-96
2021/04/19 04:32:58;;;;;;;;;;;2.30;99.90;;;;;;6363447;22;19903;-96
2021/04/19 04:35:41;;;;;;;;;;;2.30;99.90;;;;;;6363634;22;19906;-96
2021/04/19 04:38:26;;;;;;;;;;;2.30;99.90;;;;;;6361350;22;19918;-96
2021/04/19 04:40:55;;;;;;;;;;;2.40;99.90;;;;;;6358756;22;19919;-96
2021/04/19 04:43:41;;;;;;;;;;;2.40;99.90;;;;;;6333167;22;19925;-96
2021/04/19 04:46:33;;;;;;;;;;;2.30;99.90;;;;;;6329778;22;19960;-96
2021/04/19 04:49:00;;;;;;;;;;;2.30;99.90;;;;;;6358763;22;19963;-95
2021/04/19 04:51:29;;;;;;;;;;;2.30;99.90;;;;;;6354352;22;19982;-96
2021/04/19 04:53:59;;;;;;;;;;;2.20;99.90;;;;;;6347505;22;20261;-96
2021/04/19 04:56:27;;;;;;;;;;;2.40;99.90;;;;;;6353325;22;20001;-96
2021/04/19 04:58:56;;;;;;;;;;;2.30;99.90;;;;;;6321910;22;19919;-96
2021/04/19 05:01:26;;;;;;;;;;;2.40;99.90;;;;;;6354883;22;19931;-95
2021/04/19 05:03:55;;;;;;;;;;;2.40;99.90;;;;;;6358403;22;19919;-96
2021/04/19 05:06:22;;;;;;;;;;;2.50;99.90;;;;;;6353405;22;19919;-96
2021/04/19 05:09:10;;;;;;;;;;;2.40;99.90;;;;;;6356376;22;19948;-95
2021/04/19 05:12:13;;;;;;;;;;;2.30;99.90;;;;;;6357847;22;19946;-96
2021/04/19 05:15:19;;;;;;;;;;;2.50;99.90;;;;;;6363347;22;19922;-96
2021/04/19 05:18:06;;;;;;;;;;;2.60;99.90;;;;;;6361772;22;19906;-96
2021/04/19 05:23:45;;;;;;;;;;;2.70;99.90;;;;;;6345768;22;19923;-96
2021/04/19 05:26:32;;;;;;;;;;;2.80;99.90;;;;;;6338286;22;19918;-96
2021/04/19 05:29:15;;;;;;;;;;;2.70;99.90;;;;;;6359967;22;19918;-96
2021/04/19 05:31:49;;;;;;;;;;;2.80;99.90;;;;;;6333394;22;19933;-96
2021/04/19 05:34:31;;;;;;;;;;;2.90;99.90;;;;;;6338606;22;19945;-96
2021/04/19 05:37:18;;;;;;;;;;;3.00;99.90;;;;;;6285265;22;19913;-95
2021/04/19 05:40:51;;;;;;;;;;;3.20;99.90;;;;;;6245493;23;19907;-96
2021/04/19 05:44:00;;;;;;;;;;;3.20;99.90;;;;;;6266260;23;19924;-96
2021/04/19 05:46:33;;;;;;;;;;;3.30;99.90;;;;;;6270934;22;19908;-94
2021/04/19 05:49:21;;;;;;;;;;;3.40;99.90;;;;;;6266559;22;19934;-96
2021/04/19 05:52:17;;;;;;;;;;;3.60;99.90;;;;;;6267430;23;19920;-96
2021/04/19 05:54:58;;;;;;;;;;;3.60;99.90;;;;;;6212295;23;19951;-96
2021/04/19 05:57:48;;;;;;;;;;;3.80;99.90;;;;;;6262563;23;19920;-96
2021/04/19 06:00:38;;;;;;;;;;;3.80;99.90;;;;;;6266885;23;19919;-96
2021/04/19 06:04:02;;;;;;;;;;;4.00;99.90;;;;;;6264717;23;19983;-96
2021/04/19 06:06:48;;;;;;;;;;;4.20;99.90;;;;;;6152172;23;19920;-95
2021/04/19 06:09:31;;;;;;;;;;;4.30;99.90;;;;;;6175049;23;19967;-95
2021/04/19 06:12:12;;;;;;;;;;;4.40;99.90;;;;;;6173290;23;19920;-95
2021/04/19 06:15:25;;;;;;;;;;;4.60;99.90;;;;;;6165533;23;19921;-96
2021/04/19 06:17:52;;;;;;;;;;;4.70;99.90;;;;;;6254644;22;19943;-96
2021/04/19 06:20:20;;;;;;;;;;;4.70;99.90;;;;;;6252515;22;19929;-95
2021/04/19 06:22:52;;;;;;;;;;;5.00;99.90;;;;;;6278996;22;20005;-94
2021/04/19 06:25:19;;;;;;;;;;;5.10;99.90;;;;;;6251308;22;19973;-94
2021/04/19 06:27:47;;;;;;;;;;;5.20;99.90;;;;;;6251079;22;19950;-95
2021/04/19 06:30:21;;;;;;;;;;;5.30;99.90;;;;;;6252952;22;19934;-95
2021/04/19 06:32:49;;;;;;;;;;;5.40;99.90;;;;;;6253382;22;19919;-95
2021/04/19 06:35:17;;;;;;;;;;;5.30;99.90;;;;;;6252871;22;19969;-96
2021/04/19 06:37:50;;;;;;;;;;;5.20;99.90;;;;;;6292424;22;19919;-96
2021/04/19 06:40:19;;;;;;;;;;;5.20;99.90;;;;;;6318098;22;19968;-95
2021/04/19 06:42:46;;;;;;;;;;;5.10;99.90;;;;;;6315580;22;19972;-95
2021/04/19 06:45:16;;;;;;;;;;;5.00;99.90;;;;;;6315543;22;19922;-95
2021/04/19 06:47:52;;;;;;;;;;;5.00;99.90;;;;;;6342568;22;19929;-95
2021/04/19 06:50:20;;;;;;;;;;;5.10;99.90;;;;;;6314862;22;19957;-94
2021/04/19 06:52:47;;;;;;;;;;;5.20;99.90;;;;;;6314484;22;19925;-95
2021/04/19 06:55:14;;;;;;;;;;;5.30;99.90;;;;;;6313912;22;19927;-95
2021/04/19 06:57:44;;;;;;;;;;;5.40;99.90;;;;;;6313868;22;19990;-94
2021/04/19 07:00:11;;;;;;;;;;;5.60;99.90;;;;;;6313811;22;19938;-94
2021/04/19 07:02:43;;;;;;;;;;;5.60;99.90;;;;;;6314075;22;19945;-96
2021/04/19 07:05:11;;;;;;;;;;;5.60;99.90;;;;;;6289928;22;19964;-96
2021/04/19 07:07:46;;;;;;;;;;;5.70;99.90;;;;;;6315481;22;19924;-94
2021/04/19 07:10:14;;;;;;;;;;;5.80;99.90;;;;;;6314879;22;19919;-95
2021/04/19 07:12:42;;;;;;;;;;;5.80;99.90;;;;;;6316062;22;20314;-94
2021/04/19 07:15:21;;;;;;;;;;;5.70;99.90;;;;;;6320352;22;19907;-96
2021/04/19 07:18:19;;;;;;;;;;;5.70;99.90;;;;;;6341619;22;19907;-96
2021/04/19 07:21:09;;;;;;;;;;;5.70;99.90;;;;;;6242478;22;19979;-96
2021/04/19 07:30:16;;;;;;;;;;;6.20;99.90;;;;;;6313667;22;19919;-95
2021/04/19 07:35:54;;;;;;;;;;;6.40;99.90;;;;;;6251223;23;19987;-96
2021/04/19 07:38:30;;;;;;;;;;;6.40;99.90;;;;;;6247590;22;20290;-95
2021/04/19 07:40:57;;;;;;;;;;;6.20;99.90;;;;;;6340482;22;19939;-95
2021/04/19 07:43:25;;;;;;;;;;;6.20;99.90;;;;;;6340091;22;19926;-95
2021/04/19 07:45:58;;;;;;;;;;;6.20;99.90;;;;;;6343572;22;19926;-94
2021/04/19 07:48:31;;;;;;;;;;;6.00;99.90;;;;;;6339269;22;20248;-94
2021/04/19 07:51:01;;;;;;;;;;;6.00;99.90;;;;;;6343933;22;19934;-94
2021/04/19 07:53:43;;;;;;;;;;;;;;;;;;;;;
2021/04/19 07:56:18;;;;;;;;;;;5.70;99.90;;;;;;6344369;22;19997;-94
2021/04/19 07:58:47;;;;;;;;;;;5.70;99.90;;;;;;6340578;22;19926;-95
2021/04/19 08:01:17;;;;;;;;;;;5.60;99.90;;;;;;6341160;22;19922;-94
2021/04/19 08:03:44;;;;;;;;;;;5.50;99.90;;;;;;6339181;22;19997;-95
2021/04/19 08:06:21;;;;;;;;;;;5.40;99.90;;;;;;6340600;22;19945;-96
2021/04/19 08:08:48;;;;;;;;;;;5.30;99.90;;;;;;6345971;22;19919;-96
2021/04/19 08:11:18;;;;;;;;;;;5.10;99.90;;;;;;6344202;22;19926;-95
2021/04/19 08:13:45;;;;;;;;;;;5.00;99.90;;;;;;6344579;22;19925;-95
2021/04/19 08:16:13;;;;;;;;;;;4.90;99.90;;;;;;6353404;22;19945;-95
2021/04/19 08:21:53;;;;;;;;;;;4.70;99.90;;;;;;6347254;22;19917;-96
2021/04/19 08:24:23;;;;;;;;;;;4.70;99.90;;;;;;6311029;22;19945;-96
2021/04/19 08:27:05;;;;;;;;;;;4.60;99.90;;;;;;6306981;22;19918;-96
2021/04/19 08:29:45;;;;;;;;;;;4.50;99.90;;;;;;6330759;22;19918;-96
2021/04/19 08:32:41;;;;;;;;;;;4.50;99.90;;;;;;6341372;22;19926;-95
2021/04/19 08:35:16;;;;;;;;;;;4.50;99.90;;;;;;6366208;22;19925;-96
2021/04/19 08:38:29;;;;;;;;;;;4.40;99.90;;;;;;6343669;22;19946;-96
2021/04/19 08:41:11;;;;;;;;;;;4.30;99.90;;;;;;6360057;22;19933;-94
2021/04/19 08:43:58;;;;;;;;;;;4.40;99.90;;;;;;6336935;22;19934;-96
2021/04/19 08:46:46;;;;;;;;;;;4.40;99.90;;;;;;6333746;22;19925;-95
2021/04/19 08:49:13;;;;;;;;;;;4.40;99.90;;;;;;6329852;22;19977;-94
2021/04/19 08:51:40;;;;;;;;;;;4.50;99.90;;;;;;6289906;22;19945;-95
2021/04/19 08:54:07;;;;;;;;;;;4.60;99.90;;;;;;6315084;22;20355;-94
2021/04/19 08:56:34;;;;;;;;;;;4.60;99.90;;;;;;6313384;22;20243;-93
2021/04/19 08:59:01;;;;;;;;;;;4.70;99.90;;;;;;6315894;22;19925;-96
2021/04/19 09:01:29;;;;;;;;;;;4.70;99.90;;;;;;6319308;22;20350;-96
2021/04/19 09:04:03;;;;;;;;;;;4.60;99.90;;;;;;6330410;22;20005;-95
2021/04/19 09:06:47;;;;;;;;;;;4.50;99.90;;;;;;6330774;22;19926;-96
2021/04/19 09:09:35;;;;;;;;;;;4.50;99.90;;;;;;6358880;22;19930;-96
2021/04/19 09:12:08;;;;;;;;;;;4.70;99.90;;;;;;6336495;22;19933;-96
2021/04/19 09:14:42;;;;;;;;;;;4.90;99.90;;;;;;6368178;22;19906;-95
2021/04/19 09:17:09;;;;;;;;;;;4.90;99.90;;;;;;6338686;22;19959;-96
2021/04/19 09:19:53;;;;;;;;;;;5.00;99.90;;;;;;6313220;22;19941;-96
2021/04/19 09:22:36;;;;;;;;;;;5.20;99.90;;;;;;6305762;22;19946;-96
2021/04/19 09:25:15;;;;;;;;;;;5.30;99.90;;;;;;6357724;22;20029;-96
2021/04/19 09:28:14;;;;;;;;;;;5.40;99.90;;;;;;6337227;22;19906;-96
2021/04/19 09:31:00;;;;;;;;;;;5.50;99.90;;;;;;6357134;22;19926;-95
2021/04/19 09:33:45;;;;;;;;;;;5.60;99.90;;;;;;6337646;22;19935;-96
2021/04/19 09:36:48;;;;;;;;;;;6.00;99.90;;;;;;6296337;22;19925;-96
2021/04/19 09:39:45;;;;;;;;;;;6.20;99.90;;;;;;6352839;22;19958;-95
2021/04/19 09:42:13;;;;;;;;;;;6.50;99.90;;;;;;6332702;22;19971;-96
2021/04/19 09:44:53;;;;;;;;;;;6.50;99.90;;;;;;6335892;22;19918;-96
2021/04/19 09:47:48;;;;;;;;;;;6.60;99.90;;;;;;6332821;22;19949;-96
2021/04/19 09:50:19;;;;;;;;;;;6.80;99.90;;;;;;6329003;22;19919;-96
2021/04/19 09:53:03;;;;;;;;;;;6.80;99.90;;;;;;6357868;22;19938;-96
2021/04/19 09:55:30;;;;;;;;;;;7.10;99.90;;;;;;6330428;22;19929;-96
2021/04/19 09:58:34;;;;;;;;;;;7.20;99.90;;;;;;6335249;22;19939;-96
2021/04/19 10:01:24;;;;;;;;;;;7.30;99.90;;;;;;6333065;22;19925;-96
2021/04/19 10:04:09;;;;;;;;;;;7.20;99.90;;;;;;6349167;22;19942;-96
2021/04/19 10:06:42;;;;;;;;;;;7.10;99.90;;;;;;6328828;22;19949;-95
2021/04/19 10:09:13;;;;;;;;;;;6.80;99.90;;;;;;6334067;22;19925;-96
2021/04/19 10:11:50;;;;;;;;;;;6.60;99.90;;;;;;6353359;22;19982;-96
2021/04/19 10:14:26;;;;;;;;;;;6.50;99.90;;;;;;6357364;22;19918;-96
2021/04/19 10:16:54;;;;;;;;;;;6.30;99.90;;;;;;6356225;22;19919;-95
2021/04/19 10:19:40;;;;;;;;;;;6.30;99.90;;;;;;6331676;22;19925;-96
2021/04/19 10:22:08;;;;;;;;;;;6.20;99.90;;;;;;6330640;22;19919;-96
2021/04/19 10:24:48;;;;;;;;;;;6.30;99.90;;;;;;6360858;22;19925;-96
2021/04/19 10:27:29;;;;;;;;;;;6.20;99.90;;;;;;6366346;22;19906;-96
2021/04/19 10:30:08;;;;;;;;;;;6.10;99.90;;;;;;6367060;22;19906;-96
2021/04/19 10:32:51;;;;;;;;;;;6.10;99.90;;;;;;6367447;22;19946;-96
2021/04/19 10:35:54;;;;;;;;;;;5.90;99.90;;;;;;6365963;22;19937;-96
2021/04/19 10:38:51;;;;;;;;;;;5.80;99.90;;;;;;6328441;22;19919;-96
2021/04/19 10:41:50;;;;;;;;;;;5.70;99.90;;;;;;6321449;22;19930;-96
2021/04/19 10:44:37;;;;;;;;;;;5.60;99.90;;;;;;6303048;22;19938;-96
2021/04/19 10:47:21;;;;;;;;;;;5.60;99.90;;;;;;6319959;22;19919;-96
2021/04/19 11:00:51;;;;;;;;;;;5.70;99.90;;;;;;6293090;22;20296;-94
2021/04/19 11:03:21;;;;;;;;;;;5.70;99.90;;;;;;6318187;22;19918;-96
2021/04/19 11:06:23;;;;;;;;;;;5.70;99.90;;;;;;6338277;22;19967;-96
2021/04/19 11:09:27;;;;;;;;;;;5.80;99.90;;;;;;6195671;23;19908;-96
2021/04/19 14:17:25;;;;;;;;;;;8.40;99.90;;;;;;6231014;23;19931;-96
2021/04/19 14:19:54;;;;;;;;;;;8.30;99.90;;;;;;6205978;23;19920;-96
2021/04/19 14:22:25;;;;;;;;;;;8.20;99.90;;;;;;6229373;23;20003;-94
2021/04/19 14:25:17;;;;;;;;;;;8.20;99.90;;;;;;6225723;23;20309;-95
2021/04/19 14:27:43;;;;;;;;;;;8.00;99.90;;;;;;6227506;23;19935;-95
2021/04/19 14:30:11;;;;;;;;;;;7.90;99.90;;;;;;6227366;23;19924;-96
2021/04/19 14:32:39;;;;;;;;;;;7.90;99.90;;;;;;6226402;23;19927;-96
2021/04/19 14:35:08;;;;;;;;;;;7.90;99.90;;;;;;6226817;23;19931;-95
2021/04/19 14:37:38;;;;;;;;;;;7.90;99.90;;;;;;6202717;23;19920;-95
2021/04/19 14:40:08;;;;;;;;;;;8.00;99.90;;;;;;6227432;23;20333;-95
2021/04/19 14:42:37;;;;;;;;;;;8.10;99.90;;;;;;6233124;23;19943;-96
2021/04/19 14:45:07;;;;;;;;;;;8.20;99.90;;;;;;6233709;23;19920;-95
2021/04/19 14:47:33;;;;;;;;;;;8.10;99.90;;;;;;6235758;23;19907;-95
2021/04/19 14:50:01;;;;;;;;;;;8.20;99.90;;;;;;6236376;23;19952;-95
2021/04/19 14:52:30;;;;;;;;;;;7.90;99.90;;;;;;6231953;23;19920;-96
2021/04/19 14:54:57;;;;;;;;;;;7.60;99.90;;;;;;6225557;23;19968;-96
2021/04/19 14:57:25;;;;;;;;;;;7.30;99.90;;;;;;6224696;23;19920;-96
2021/04/19 14:59:51;;;;;;;;;;;7.00;99.90;;;;;;6223061;23;19920;-95
2021/04/19 15:02:18;;;;;;;;;;;6.80;99.90;;;;;;6218320;23;19952;-94
2021/04/19 15:04:45;;;;;;;;;;;6.60;99.90;;;;;;6236536;23;19908;-95
2021/04/19 15:10:41;;;;;;;;;;;6.20;99.90;;;;;;6221951;23;19934;-95
2021/04/19 15:13:08;;;;;;;;;;;6.10;99.90;;;;;;6221017;23;19926;-95
2021/04/19 15:15:34;;;;;;;;;;;6.00;99.90;;;;;;6219325;23;19920;-94
2021/04/19 15:18:01;;;;;;;;;;;5.90;99.90;;;;;;6219963;23;19920;-96
2021/04/19 15:20:28;;;;;;;;;;;5.90;99.90;;;;;;6219764;23;19964;-96
2021/04/19 15:22:55;;;;;;;;;;;5.90;99.90;;;;;;6220075;23;20389;-96
2021/04/19 15:25:21;;;;;;;;;;;5.90;99.90;;;;;;6224063;23;19927;-96
2021/04/19 15:27:49;;;;;;;;;;;5.90;99.90;;;;;;6222228;23;19960;-96
2021/04/19 15:30:18;;;;;;;;;;;5.80;99.90;;;;;;6221184;23;19940;-96
2021/04/19 15:32:45;;;;;;;;;;;5.80;99.90;;;;;;6221145;23;19968;-95
2021/04/19 15:35:14;;;;;;;;;;;5.80;99.90;;;;;;6223855;23;19931;-94
2021/04/19 15:37:41;;;;;;;;;;;5.80;99.90;;;;;;6224195;23;19920;-96
2021/04/19 15:40:09;;;;;;;;;;;5.80;99.90;;;;;;6224296;23;19960;-95
2021/04/19 15:42:36;;;;;;;;;;;6.00;99.90;;;;;;6224091;23;19919;-95
2021/04/19 15:45:03;;;;;;;;;;;6.00;99.90;;;;;;6220284;23;19970;-96
2021/04/19 15:47:40;;;;;;;;;;;6.10;99.90;;;;;;6228300;23;19942;-96
2021/04/19 15:50:10;;;;;;;;;;;6.10;99.90;;;;;;6228259;23;19979;-95
2021/04/19 15:53:48;;;;;;;;;;;6.10;99.90;;;;;;6240061;23;20069;-94
2021/04/19 15:56:51;;;;;;;;;;;6.20;99.90;;;;;;6241260;23;19923;-95
2021/04/19 16:03:33;;;;;;;;;;;6.30;99.90;;;;;;6147240;23;19909;-96
2021/04/19 16:07:12;;;;;;;;;;;6.20;99.90;;;;;;6149473;23;20005;-96
2021/04/19 16:10:33;;;;;;;;;;;6.10;99.90;;;;;;6062984;23;19938;-96
2021/04/19 17:09:09;;;;;;;;;;;5.20;99.90;;;;;;6357876;22;19925;-92
2021/04/19 17:11:36;;;;;;;;;;;5.40;99.90;;;;;;6331289;22;19940;-96
2021/04/19 17:14:17;;;;;;;;;;;5.50;99.90;;;;;;6354158;22;19934;-95
2021/04/19 17:16:50;;;;;;;;;;;5.40;99.90;;;;;;6325775;22;19973;-95
2021/04/19 17:19:47;;;;;;;;;;;5.30;99.90;;;;;;6244074;22;19919;-94
2021/04/19 17:22:37;;;;;;;;;;;5.20;99.90;;;;;;6336368;22;19938;-94
2021/04/19 17:29:15;;;;;;;;;;;5.20;99.90;;;;;;6212088;23;19919;-96
2021/04/19 18:01:28;;;;;;;;;;;4.20;99.90;;;;;;6270189;23;19964;-96
2021/04/19 18:04:22;;;;;;;;;;;4.40;99.90;;;;;;6246231;23;19918;-96
2021/04/19 18:06:58;;;;;;;;;;;4.30;99.90;;;;;;6264179;23;19930;-95
2021/04/19 18:09:38;;;;;;;;;;;4.20;99.90;;;;;;6241803;23;19924;-95
2021/04/19 18:12:48;;;;;;;;;;;4.20;99.90;;;;;;6236184;23;20260;-94
2021/04/19 19:05:23;;;;;;;;;;;3.50;99.90;;;;;;6360990;22;19937;-96
2021/04/19 19:08:11;;;;;;;;;;;3.60;99.90;;;;;;6330758;22;19919;-95
2021/04/19 19:10:52;;;;;;;;;;;3.70;99.90;;;;;;6330642;22;19919;-96
2021/04/19 19:13:29;;;;;;;;;;;3.60;99.90;;;;;;6327379;22;19960;-96
2021/04/19 19:16:38;;;;;;;;;;;3.70;99.90;;;;;;6356654;22;19985;-96
2021/04/19 19:19:52;;;;;;;;;;;3.70;99.90;;;;;;6122350;23;19920;-96
2021/04/19 19:25:23;;;;;;;;;;;3.70;99.90;;;;;;6292932;22;19968;-93
2021/04/19 19:28:24;;;;;;;;;;;3.80;99.90;;;;;;6326556;22;19944;-96
2021/04/19 19:31:33;;;;;;;;;;;3.90;99.90;;;;;;6305369;22;19969;-96
2021/04/19 19:34:51;;;;;;;;;;;3.80;99.90;;;;;;6315462;22;19965;-96
2021/04/19 19:37:56;;;;;;;;;;;3.90;99.90;;;;;;6200535;23;20294;-96
2021/04/19 19:40:48;;;;;;;;;;;4.00;99.90;;;;;;6201686;23;19968;-96
2021/04/19 19:43:41;;;;;;;;;;;4.10;99.90;;;;;;6179844;23;19927;-96
2021/04/19 19:46:56;;;;;;;;;;;4.10;99.90;;;;;;6203117;23;19928;-96
2021/04/19 19:49:59;;;;;;;;;;;4.10;99.90;;;;;;6207022;23;19924;-95
2021/04/19 19:53:33;;;;;;;;;;;4.20;99.90;;;;;;6207810;23;20021;-96
2021/04/19 19:57:05;;;;;;;;;;;4.10;99.90;;;;;;6207620;23;19915;-96
